Time;durP1;ratioP1;P1;durP2;ratioP2;P2;SDS_P1;SDS_P2;PMS_P1;PMS_P2;Temp;Humidity;BMP_temperature;BMP_pressure;BME280_temperature;BME280_humidity;BME280_pressure;Samples;Min_cycle;Max_cycle;Signal;HPM_P1;HPM_P2
2020/12/30 00:02:27;;;;;;;4.03;2.88;;;4.70;99.90;;;;;;5068824;28;20234;-58
2020/12/30 00:04:53;;;;;;;3.05;2.80;;;4.80;99.90;;;;;;5066542;28;20558;-58
2020/12/30 00:07:19;;;;;;;3.35;2.55;;;4.70;99.90;;;;;;5068720;28;20900;-58
2020/12/30 00:09:45;;;;;;;4.37;3.37;;;4.80;99.90;;;;;;5068454;28;20221;-58
2020/12/30 00:12:10;;;;;;;3.27;2.97;;;4.70;99.90;;;;;;5068484;28;20438;-58
2020/12/30 00:14:36;;;;;;;4.50;3.00;;;4.60;99.90;;;;;;5058545;28;20638;-58
2020/12/30 00:17:03;;;;;;;3.60;2.80;;;4.80;99.90;;;;;;5068517;28;20205;-58
2020/12/30 00:19:29;;;;;;;3.53;3.20;;;4.60;99.90;;;;;;5064849;28;20190;-58
2020/12/30 00:21:55;;;;;;;2.83;2.63;;;4.70;99.90;;;;;;5058978;28;20181;-59
2020/12/30 00:24:20;;;;;;;3.07;2.43;;;4.80;99.90;;;;;;5068422;28;20179;-59
2020/12/30 00:26:46;;;;;;;2.97;2.70;;;4.80;99.90;;;;;;5068026;28;20208;-59
2020/12/30 00:29:12;;;;;;;2.53;2.33;;;4.80;99.90;;;;;;5068009;28;20296;-58
2020/12/30 00:31:37;;;;;;;4.67;2.77;;;4.60;99.90;;;;;;5068243;28;20184;-58
2020/12/30 00:34:03;;;;;;;3.50;2.50;;;4.80;99.90;;;;;;5068217;28;20185;-58
2020/12/30 00:36:28;;;;;;;3.33;2.60;;;4.70;99.90;;;;;;5068094;28;20683;-58
2020/12/30 00:38:54;;;;;;;2.00;1.80;;;4.80;99.90;;;;;;5065443;28;20235;-58
2020/12/30 00:41:20;;;;;;;3.37;2.73;;;4.60;99.90;;;;;;5068077;28;20186;-58
2020/12/30 00:43:46;;;;;;;2.23;2.03;;;4.70;99.90;;;;;;5066516;28;20555;-58
2020/12/30 00:46:17;;;;;;;3.20;2.55;;;4.80;99.90;;;;;;5067755;28;20212;-59
2020/12/30 00:48:44;;;;;;;3.75;2.85;;;4.80;99.90;;;;;;5068231;28;20193;-59
2020/12/30 00:51:17;;;;;;;3.78;3.28;;;4.90;99.90;;;;;;5067889;28;20171;-59
2020/12/30 00:53:43;;;;;;;3.35;2.50;;;4.70;99.90;;;;;;5067081;28;20185;-58
2020/12/30 00:56:10;;;;;;;3.50;2.80;;;4.50;99.90;;;;;;5067950;28;20185;-59
2020/12/30 00:58:36;;;;;;;3.72;3.22;;;4.50;99.90;;;;;;5067951;28;20188;-59
2020/12/30 01:01:03;;;;;;;3.75;3.03;;;4.70;99.90;;;;;;5068032;28;20185;-59
2020/12/30 01:03:29;;;;;;;3.90;2.97;;;4.50;99.90;;;;;;5069325;28;20807;-58
2020/12/30 01:05:56;;;;;;;2.70;2.33;;;4.40;99.90;;;;;;5067953;28;20184;-59
2020/12/30 01:08:22;;;;;;;3.38;2.70;;;4.60;99.90;;;;;;5067680;28;20334;-58
2020/12/30 01:10:47;;;;;;;2.23;2.13;;;4.50;99.90;;;;;;5067128;28;20295;-58
2020/12/30 01:13:13;;;;;;;2.30;2.10;;;4.40;99.90;;;;;;5068462;28;20560;-58
2020/12/30 01:15:39;;;;;;;2.50;2.30;;;4.70;99.90;;;;;;5065919;28;20188;-58
2020/12/30 01:18:04;;;;;;;2.70;2.37;;;4.90;99.90;;;;;;5067595;28;20212;-59
2020/12/30 01:20:30;;;;;;;2.90;2.67;;;4.90;99.90;;;;;;5067684;28;20254;-59
2020/12/30 01:22:56;;;;;;;2.70;2.37;;;4.70;99.90;;;;;;5068968;28;20435;-58
2020/12/30 01:25:21;;;;;;;3.40;2.27;;;4.80;99.90;;;;;;5070210;28;20600;-58
2020/12/30 01:27:47;;;;;;;2.13;1.93;;;4.80;99.90;;;;;;5070688;28;20674;-58
2020/12/30 01:30:13;;;;;;;2.67;2.17;;;4.70;99.90;;;;;;5071563;28;20181;-58
2020/12/30 01:32:38;;;;;;;2.80;2.53;;;4.60;99.90;;;;;;5071508;28;20564;-58
2020/12/30 01:35:04;;;;;;;3.40;2.20;;;4.70;99.90;;;;;;5071830;28;20650;-58
2020/12/30 01:37:29;;;;;;;2.40;2.20;;;4.80;99.90;;;;;;5071111;28;20220;-58
2020/12/30 01:39:55;;;;;;;2.23;1.73;;;4.90;99.90;;;;;;5071116;28;20213;-58
2020/12/30 01:42:20;;;;;;;2.90;2.70;;;5.00;99.90;;;;;;5071471;28;20177;-58
2020/12/30 01:44:46;;;;;;;2.30;2.10;;;4.80;99.90;;;;;;5067622;28;20700;-58
2020/12/30 01:47:13;;;;;;;2.50;2.30;;;4.90;99.90;;;;;;5070972;28;20223;-58
2020/12/30 01:49:38;;;;;;;2.13;1.92;;;4.80;99.90;;;;;;5071175;28;20435;-58
2020/12/30 01:52:05;;;;;;;2.17;1.97;;;4.60;99.90;;;;;;5070887;28;20182;-58
2020/12/30 01:54:30;;;;;;;3.00;2.70;;;4.80;99.90;;;;;;5071188;28;20643;-58
2020/12/30 01:56:56;;;;;;;2.30;2.10;;;4.90;99.90;;;;;;5070932;28;20208;-58
2020/12/30 01:59:22;;;;;;;2.63;2.43;;;4.60;99.90;;;;;;5070833;28;20440;-58
2020/12/30 02:02:10;;;;;;;2.50;2.30;;;4.90;99.90;;;;;;5070192;28;20208;-58
2020/12/30 02:04:49;;;;;;;4.80;2.42;;;4.80;99.90;;;;;;5070787;28;20182;-58
2020/12/30 02:07:16;;;;;;;2.20;2.00;;;4.90;99.90;;;;;;5070779;28;20671;-58
2020/12/30 02:09:42;;;;;;;2.05;1.85;;;4.70;99.90;;;;;;5070888;28;20260;-58
2020/12/30 02:12:08;;;;;;;1.70;1.60;;;5.00;99.90;;;;;;5070955;28;20185;-59
2020/12/30 02:14:34;;;;;;;2.20;2.00;;;4.70;99.90;;;;;;5072175;28;20184;-58
2020/12/30 02:17:00;;;;;;;2.83;2.17;;;4.80;99.90;;;;;;5070369;28;20201;-58
2020/12/30 02:19:25;;;;;;;1.93;1.73;;;5.00;99.90;;;;;;5069581;28;20185;-58
2020/12/30 02:21:55;;;;;;;2.33;2.13;;;4.90;99.90;;;;;;5070849;28;20678;-58
2020/12/30 02:24:31;;;;;;;2.53;2.30;;;5.10;99.90;;;;;;5070659;28;20185;-58
2020/12/30 02:26:58;;;;;;;2.10;1.90;;;4.90;99.90;;;;;;5070381;28;20212;-58
2020/12/30 02:29:23;;;;;;;2.90;2.22;;;4.90;99.90;;;;;;5070125;28;20701;-58
2020/12/30 02:31:49;;;;;;;2.77;2.57;;;5.10;99.90;;;;;;5070390;28;20189;-58
2020/12/30 02:34:15;;;;;;;3.53;2.23;;;5.00;99.90;;;;;;5070527;28;20352;-59
2020/12/30 02:36:41;;;;;;;2.65;1.80;;;4.90;99.90;;;;;;5068666;28;20206;-59
2020/12/30 02:39:07;;;;;;;2.03;1.83;;;5.00;99.90;;;;;;5066056;28;20463;-58
2020/12/30 02:41:33;;;;;;;3.00;2.23;;;4.70;99.90;;;;;;5061186;28;20270;-59
2020/12/30 02:44:01;;;;;;;2.40;1.88;;;4.80;99.90;;;;;;5070375;28;20318;-58
2020/12/30 02:46:26;;;;;;;2.08;1.77;;;5.10;99.90;;;;;;5069912;28;20214;-58
2020/12/30 02:48:52;;;;;;;2.20;1.90;;;5.00;99.90;;;;;;5069846;28;20244;-58
2020/12/30 02:51:17;;;;;;;2.43;1.77;;;5.10;99.90;;;;;;5059054;28;20209;-58
2020/12/30 02:53:43;;;;;;;1.70;1.60;;;5.10;99.90;;;;;;5066866;28;20603;-59
2020/12/30 02:56:09;;;;;;;1.73;1.63;;;5.30;99.90;;;;;;5070154;28;20189;-58
2020/12/30 02:58:34;;;;;;;2.10;1.90;;;4.80;99.90;;;;;;5069848;28;20185;-58
2020/12/30 03:01:00;;;;;;;1.90;1.60;;;4.40;99.90;;;;;;5069779;28;20204;-58
2020/12/30 03:03:26;;;;;;;2.03;1.70;;;5.20;99.90;;;;;;5069823;28;20264;-59
2020/12/30 03:05:53;;;;;;;1.53;1.43;;;5.30;99.90;;;;;;5070165;28;20674;-58
2020/12/30 03:08:18;;;;;;;2.65;1.50;;;5.20;99.90;;;;;;5069307;28;20244;-59
2020/12/30 03:10:44;;;;;;;2.50;1.77;;;5.30;99.90;;;;;;5069086;28;20204;-59
2020/12/30 03:13:10;;;;;;;1.80;1.67;;;5.30;99.90;;;;;;5069534;28;20279;-59
2020/12/30 03:15:35;;;;;;;2.40;1.50;;;5.20;99.90;;;;;;5068195;28;20174;-59
2020/12/30 03:18:01;;;;;;;2.33;1.60;;;5.20;99.90;;;;;;5069239;28;20215;-58
2020/12/30 03:20:26;;;;;;;2.00;1.40;;;5.00;99.90;;;;;;5069522;28;20189;-59
2020/12/30 03:22:52;;;;;;;1.70;1.60;;;5.10;99.90;;;;;;5079070;28;20221;-59
2020/12/30 03:25:17;;;;;;;2.30;2.03;;;5.40;99.90;;;;;;5061496;28;20186;-59
2020/12/30 03:27:43;;;;;;;1.93;1.70;;;5.10;99.90;;;;;;5068232;28;20350;-59
2020/12/30 03:30:09;;;;;;;2.30;1.60;;;5.10;99.90;;;;;;5069120;28;20178;-59
2020/12/30 03:32:35;;;;;;;1.63;1.40;;;5.20;99.90;;;;;;5069203;28;20230;-59
2020/12/30 03:35:00;;;;;;;1.60;1.50;;;5.20;99.90;;;;;;5069233;28;20233;-59
2020/12/30 03:37:26;;;;;;;3.17;1.80;;;5.30;99.90;;;;;;5069003;28;20492;-59
2020/12/30 03:39:51;;;;;;;1.80;1.70;;;4.60;99.90;;;;;;5068954;28;20174;-59
2020/12/30 03:42:17;;;;;;;1.77;1.60;;;5.10;99.90;;;;;;5069159;28;20177;-59
2020/12/30 03:44:43;;;;;;;2.33;1.80;;;5.30;99.90;;;;;;5068455;28;20181;-58
2020/12/30 03:47:08;;;;;;;2.13;1.90;;;5.10;99.90;;;;;;5068717;28;20734;-58
2020/12/30 03:49:34;;;;;;;2.37;1.80;;;5.00;99.90;;;;;;5067946;28;20236;-59
2020/12/30 03:52:01;;;;;;;2.10;1.50;;;5.00;99.90;;;;;;5068853;28;20204;-59
2020/12/30 03:54:28;;;;;;;1.50;1.40;;;5.10;99.90;;;;;;5068935;28;20180;-58
2020/12/30 03:56:53;;;;;;;1.92;1.42;;;4.90;99.90;;;;;;5068640;28;20693;-58
2020/12/30 03:59:19;;;;;;;2.40;1.60;;;4.90;99.90;;;;;;5068564;28;20185;-58
2020/12/30 04:01:45;;;;;;;1.67;1.57;;;4.80;99.90;;;;;;5068177;28;20623;-58
2020/12/30 04:04:13;;;;;;;1.63;1.53;;;4.90;99.90;;;;;;5068801;28;20223;-58
2020/12/30 04:06:39;;;;;;;2.20;2.00;;;4.80;99.90;;;;;;5068568;28;20497;-58
2020/12/30 04:09:05;;;;;;;2.13;1.95;;;5.00;99.90;;;;;;5068281;28;20623;-58
2020/12/30 04:11:31;;;;;;;1.87;1.77;;;4.90;99.90;;;;;;5068730;28;20231;-58
2020/12/30 04:13:56;;;;;;;1.77;1.60;;;4.70;99.90;;;;;;5068331;28;20195;-58
2020/12/30 04:16:23;;;;;;;2.63;1.93;;;4.60;99.90;;;;;;5068176;28;20301;-58
2020/12/30 04:18:49;;;;;;;2.10;1.90;;;4.70;99.90;;;;;;5068276;28;20190;-58
2020/12/30 04:21:22;;;;;;;4.38;2.63;;;4.60;99.90;;;;;;5068800;28;20196;-58
2020/12/30 04:23:52;;;;;;;2.10;1.77;;;4.80;99.90;;;;;;5068270;28;20182;-58
2020/12/30 04:26:19;;;;;;;1.73;1.63;;;4.60;99.90;;;;;;5064122;28;20178;-59
2020/12/30 04:28:45;;;;;;;3.88;1.98;;;4.70;99.90;;;;;;5061100;28;20198;-58
2020/12/30 04:31:12;;;;;;;3.03;1.80;;;4.50;99.90;;;;;;5068656;28;20563;-58
2020/12/30 04:33:39;;;;;;;2.10;1.85;;;4.50;99.90;;;;;;5068346;28;20434;-59
2020/12/30 04:36:05;;;;;;;2.55;2.35;;;4.20;99.90;;;;;;5067644;28;20188;-59
2020/12/30 04:38:32;;;;;;;2.22;2.00;;;4.30;99.90;;;;;;5067712;28;20228;-58
2020/12/30 04:41:12;;;;;;;2.47;2.10;;;4.10;99.90;;;;;;5068129;28;20191;-58
2020/12/30 04:43:40;;;;;;;2.05;1.85;;;4.10;99.90;;;;;;5068237;28;20181;-58
2020/12/30 04:46:06;;;;;;;3.50;2.08;;;4.00;99.90;;;;;;5068060;28;20668;-58
2020/12/30 04:48:33;;;;;;;2.55;2.05;;;4.20;99.90;;;;;;5056954;28;20202;-58
2020/12/30 04:51:01;;;;;;;2.45;2.20;;;4.10;99.90;;;;;;5053517;28;20489;-58
2020/12/30 04:53:27;;;;;;;3.55;2.30;;;4.10;99.90;;;;;;5062815;28;20647;-59
2020/12/30 04:55:59;;;;;;;2.10;1.80;;;4.10;99.90;;;;;;5068042;28;20185;-58
2020/12/30 04:58:30;;;;;;;2.35;1.92;;;4.00;99.90;;;;;;5067469;28;20205;-58
2020/12/30 05:00:57;;;;;;;2.78;2.25;;;4.00;99.90;;;;;;5067915;28;20189;-58
2020/12/30 05:03:28;;;;;;;4.65;2.38;;;3.90;99.90;;;;;;5067962;28;20180;-58
2020/12/30 05:06:04;;;;;;;3.00;1.65;;;3.90;99.90;;;;;;5067942;28;20478;-58
2020/12/30 05:08:33;;;;;;;3.08;1.95;;;4.00;99.90;;;;;;5067494;28;20289;-59
2020/12/30 05:10:59;;;;;;;2.10;1.90;;;4.00;99.90;;;;;;5080788;28;20225;-59
2020/12/30 05:13:26;;;;;;;2.95;2.05;;;4.10;99.90;;;;;;5054437;28;20177;-59
2020/12/30 05:15:51;;;;;;;2.60;1.70;;;3.90;99.90;;;;;;5067702;28;20181;-58
2020/12/30 05:18:19;;;;;;;1.93;1.67;;;4.10;99.90;;;;;;5063891;28;20208;-58
2020/12/30 05:20:46;;;;;;;2.72;2.47;;;3.90;99.90;;;;;;5068885;28;20195;-58
2020/12/30 05:23:12;;;;;;;3.60;2.35;;;4.00;99.90;;;;;;5067691;28;20267;-59
2020/12/30 05:25:43;;;;;;;2.22;1.98;;;3.70;99.90;;;;;;5066990;28;20187;-58
2020/12/30 05:28:10;;;;;;;2.33;2.10;;;3.70;99.90;;;;;;5052143;28;20606;-58
2020/12/30 05:30:37;;;;;;;2.50;1.77;;;3.90;99.90;;;;;;5062445;28;20282;-58
2020/12/30 05:33:06;;;;;;;2.55;1.80;;;4.00;99.90;;;;;;5067426;28;20528;-58
2020/12/30 05:35:33;;;;;;;2.65;1.77;;;3.80;99.90;;;;;;5067306;28;20181;-59
2020/12/30 05:38:00;;;;;;;2.58;2.08;;;3.90;99.90;;;;;;5067631;28;20220;-58
2020/12/30 05:40:31;;;;;;;2.63;2.00;;;3.90;99.90;;;;;;5067614;28;20193;-58
2020/12/30 05:43:15;;;;;;;2.70;2.03;;;4.10;99.90;;;;;;5066995;28;20193;-58
2020/12/30 05:45:52;;;;;;;2.60;1.88;;;4.10;99.90;;;;;;5067384;28;20208;-59
2020/12/30 05:48:18;;;;;;;1.55;1.45;;;4.00;99.90;;;;;;5058560;28;20221;-59
2020/12/30 05:50:52;;;;;;;3.47;1.92;;;4.20;99.90;;;;;;5051704;28;20747;-58
2020/12/30 05:53:19;;;;;;;2.90;1.75;;;4.50;99.90;;;;;;5067411;28;20185;-58
2020/12/30 05:55:48;;;;;;;2.45;1.92;;;4.30;99.90;;;;;;5067412;28;20284;-59
2020/12/30 05:58:15;;;;;;;1.45;1.30;;;4.50;99.90;;;;;;5067240;28;20209;-59
2020/12/30 06:00:41;;;;;;;3.03;2.00;;;4.70;99.90;;;;;;5066836;28;20200;-58
2020/12/30 06:03:07;;;;;;;1.88;1.70;;;4.60;99.90;;;;;;5067387;28;20275;-59
2020/12/30 06:05:34;;;;;;;3.00;1.75;;;4.30;99.90;;;;;;5067242;28;20196;-58
2020/12/30 06:08:00;;;;;;;2.15;1.48;;;4.40;99.90;;;;;;5067273;28;20204;-58
2020/12/30 06:10:27;;;;;;;1.88;1.67;;;4.60;99.90;;;;;;5066955;28;20681;-59
2020/12/30 06:12:58;;;;;;;1.67;1.40;;;4.80;99.90;;;;;;5070149;28;20231;-59
2020/12/30 06:15:28;;;;;;;2.65;1.75;;;4.70;99.90;;;;;;5070693;28;20186;-58
2020/12/30 06:17:58;;;;;;;1.90;1.40;;;4.40;99.90;;;;;;5069789;28;20591;-58
2020/12/30 06:20:31;;;;;;;1.95;1.70;;;4.20;99.90;;;;;;5069511;28;20650;-58
2020/12/30 06:23:01;;;;;;;2.25;1.50;;;4.60;99.90;;;;;;5070694;28;20189;-58
2020/12/30 06:25:29;;;;;;;1.80;1.52;;;4.50;99.90;;;;;;5070573;28;20208;-58
2020/12/30 06:27:56;;;;;;;1.95;1.48;;;4.40;99.90;;;;;;5070353;28;20622;-58
2020/12/30 06:30:22;;;;;;;1.63;1.38;;;4.50;99.90;;;;;;5070223;28;20265;-58
2020/12/30 06:32:49;;;;;;;1.63;1.50;;;4.40;99.90;;;;;;5070558;28;20236;-58
2020/12/30 06:35:25;;;;;;;3.08;1.70;;;4.60;99.90;;;;;;5069669;28;20479;-58
2020/12/30 06:37:51;;;;;;;3.47;2.00;;;4.30;99.90;;;;;;5070310;28;20226;-58
2020/12/30 06:40:31;;;;;;;2.60;1.90;;;4.10;99.90;;;;;;5070183;28;20271;-58
2020/12/30 06:43:02;;;;;;;2.20;1.63;;;4.50;99.90;;;;;;5070406;28;20459;-59
2020/12/30 06:45:42;;;;;;;2.60;2.05;;;4.50;99.90;;;;;;5070213;28;20182;-58
2020/12/30 06:48:09;;;;;;;2.72;1.90;;;4.50;99.90;;;;;;5073051;28;20209;-58
2020/12/30 06:50:35;;;;;;;2.60;1.90;;;4.60;99.90;;;;;;5069963;28;20173;-59
2020/12/30 06:53:22;;;;;;;3.60;2.10;;;4.40;99.90;;;;;;5070577;28;20254;-58
2020/12/30 06:55:48;;;;;;;3.22;1.77;;;4.60;99.90;;;;;;5070216;28;20517;-58
2020/12/30 06:58:41;;;;;;;3.13;1.60;;;4.70;99.90;;;;;;5069889;28;20262;-60
2020/12/30 07:01:07;;;;;;;2.22;2.05;;;4.60;99.90;;;;;;5070093;28;20442;-59
2020/12/30 07:03:33;;;;;;;2.50;1.87;;;4.30;99.90;;;;;;5069980;28;20182;-59
2020/12/30 07:06:20;;;;;;;1.87;1.73;;;4.40;99.90;;;;;;5069979;28;20182;-59
2020/12/30 07:08:46;;;;;;;1.60;1.50;;;4.60;99.90;;;;;;5068652;28;20694;-58
2020/12/30 07:11:11;;;;;;;1.87;1.63;;;4.40;99.90;;;;;;5069844;28;20200;-59
2020/12/30 07:13:40;;;;;;;2.43;2.23;;;4.40;99.90;;;;;;5069913;28;20193;-59
2020/12/30 07:16:33;;;;;;;4.55;2.10;;;4.60;99.90;;;;;;5069507;28;20268;-59
2020/12/30 07:18:58;;;;;;;2.13;1.92;;;4.70;99.90;;;;;;5067994;28;20178;-59
2020/12/30 07:21:24;;;;;;;2.00;1.90;;;4.20;99.90;;;;;;5070686;28;20185;-59
2020/12/30 07:23:49;;;;;;;2.10;1.90;;;4.40;99.90;;;;;;5069347;28;20185;-59
2020/12/30 07:26:20;;;;;;;2.27;1.87;;;4.70;99.90;;;;;;5068319;28;20193;-59
2020/12/30 07:28:47;;;;;;;2.45;2.25;;;4.50;99.90;;;;;;5069082;28;20244;-58
2020/12/30 07:31:14;;;;;;;2.78;2.30;;;4.60;99.90;;;;;;5069308;28;20243;-59
2020/12/30 07:33:40;;;;;;;2.20;2.00;;;4.70;99.90;;;;;;5069108;28;20235;-59
2020/12/30 07:36:08;;;;;;;2.53;2.13;;;3.90;99.90;;;;;;5068859;28;20193;-59
2020/12/30 07:38:34;;;;;;;2.10;1.85;;;4.60;99.90;;;;;;5069103;28;20583;-58
2020/12/30 07:41:08;;;;;;;2.33;2.13;;;4.60;99.90;;;;;;5069046;28;20654;-59
2020/12/30 07:43:52;;;;;;;2.40;1.90;;;4.90;99.90;;;;;;5068328;28;20189;-59
2020/12/30 07:46:19;;;;;;;2.95;2.50;;;4.50;99.90;;;;;;5068471;28;20177;-58
2020/12/30 07:48:45;;;;;;;4.60;1.90;;;4.90;99.90;;;;;;5079389;28;20265;-59
2020/12/30 07:51:12;;;;;;;3.17;2.20;;;4.70;99.90;;;;;;5060892;28;20177;-59
2020/12/30 07:53:38;;;;;;;3.60;2.25;;;4.60;99.90;;;;;;5068608;28;20424;-59
2020/12/30 07:56:04;;;;;;;3.00;2.30;;;4.80;99.90;;;;;;5068462;28;20321;-59
2020/12/30 07:58:29;;;;;;;2.30;2.10;;;4.90;99.90;;;;;;5068299;28;21008;-59
2020/12/30 08:00:56;;;;;;;2.30;1.70;;;4.70;99.90;;;;;;5067316;28;20438;-58
2020/12/30 08:03:22;;;;;;;2.80;2.10;;;5.10;99.90;;;;;;5068379;28;20213;-58
2020/12/30 08:05:50;;;;;;;2.47;2.27;;;4.90;99.90;;;;;;5068135;28;20687;-59
2020/12/30 08:08:17;;;;;;;2.97;2.03;;;4.80;99.90;;;;;;5067995;28;20214;-59
2020/12/30 08:10:48;;;;;;;2.47;1.80;;;5.00;99.90;;;;;;5068086;28;20196;-59
2020/12/30 08:13:15;;;;;;;1.98;1.85;;;5.00;99.90;;;;;;5068097;28;20181;-59
2020/12/30 08:15:51;;;;;;;2.78;1.83;;;5.00;99.90;;;;;;5067392;28;20228;-59
2020/12/30 08:18:20;;;;;;;2.35;1.80;;;5.30;99.90;;;;;;5065115;28;20752;-59
2020/12/30 08:20:45;;;;;;;3.65;1.65;;;5.10;99.90;;;;;;5068017;28;20186;-59
2020/12/30 08:23:11;;;;;;;3.00;2.00;;;5.50;99.90;;;;;;5068302;28;20193;-60
2020/12/30 08:25:37;;;;;;;2.10;1.90;;;5.30;99.90;;;;;;5068108;28;20246;-59
2020/12/30 08:28:07;;;;;;;1.57;1.47;;;5.60;99.90;;;;;;5067409;28;20463;-59
2020/12/30 08:30:34;;;;;;;1.80;1.70;;;5.60;99.90;;;;;;5067856;28;20225;-59
2020/12/30 08:33:07;;;;;;;1.67;1.58;;;5.20;99.90;;;;;;5067170;28;20190;-59
2020/12/30 08:35:39;;;;;;;2.03;1.83;;;5.20;99.90;;;;;;5067672;28;20205;-59
2020/12/30 08:38:08;;;;;;;2.00;1.73;;;5.30;99.90;;;;;;5068075;28;20201;-58
2020/12/30 08:40:35;;;;;;;1.80;1.58;;;5.30;99.90;;;;;;5068238;28;20534;-58
2020/12/30 08:43:10;;;;;;;3.25;1.50;;;5.30;99.90;;;;;;5068128;28;20197;-59
2020/12/30 08:45:45;;;;;;;1.88;1.67;;;5.50;99.90;;;;;;5067636;28;20613;-58
2020/12/30 08:48:15;;;;;;;2.45;1.50;;;5.50;99.90;;;;;;5067300;28;20233;-59
2020/12/30 08:50:41;;;;;;;2.13;1.40;;;5.70;99.90;;;;;;5080979;28;20185;-59
2020/12/30 08:53:07;;;;;;;2.67;1.65;;;5.50;99.90;;;;;;5063109;28;20170;-58
2020/12/30 08:55:33;;;;;;;2.60;1.95;;;5.70;99.90;;;;;;5074707;28;20181;-58
2020/12/30 08:57:59;;;;;;;2.07;1.50;;;5.70;99.90;;;;;;5073068;28;20249;-58
2020/12/30 09:00:26;;;;;;;2.20;1.80;;;5.80;99.90;;;;;;5048840;28;20954;-58
2020/12/30 09:02:53;;;;;;;2.90;1.70;;;6.00;99.90;;;;;;5060079;28;20545;-58
2020/12/30 09:05:29;;;;;;;1.40;1.30;;;6.10;99.90;;;;;;5067359;28;20667;-59
2020/12/30 09:08:11;;;;;;;1.90;1.45;;;5.80;99.90;;;;;;5066700;28;20209;-61
2020/12/30 09:10:36;;;;;;;1.90;1.30;;;6.20;99.90;;;;;;5067566;28;20178;-58
2020/12/30 09:13:16;;;;;;;1.43;1.33;;;6.30;99.90;;;;;;5067217;28;20208;-58
2020/12/30 09:15:48;;;;;;;1.60;1.50;;;6.40;99.90;;;;;;5067307;28;20605;-58
2020/12/30 09:18:15;;;;;;;1.55;1.45;;;6.10;99.90;;;;;;5066782;28;20234;-59
2020/12/30 09:20:41;;;;;;;1.58;1.40;;;6.20;99.90;;;;;;5066991;28;20223;-58
2020/12/30 09:23:08;;;;;;;2.00;1.30;;;6.20;99.90;;;;;;5067181;28;20211;-58
2020/12/30 09:25:37;;;;;;;2.58;1.60;;;6.20;99.90;;;;;;5067957;28;20188;-58
2020/12/30 09:28:18;;;;;;;1.60;1.50;;;6.10;99.90;;;;;;5066943;28;20713;-58
2020/12/30 09:30:48;;;;;;;1.75;1.60;;;5.90;99.90;;;;;;5066843;28;20200;-59
2020/12/30 09:33:18;;;;;;;1.50;1.38;;;6.00;99.90;;;;;;5067463;28;20185;-59
2020/12/30 09:35:45;;;;;;;2.45;1.50;;;6.20;99.90;;;;;;5066866;28;20349;-58
2020/12/30 09:38:20;;;;;;;1.77;1.40;;;6.10;99.90;;;;;;5066643;28;20206;-58
2020/12/30 09:40:48;;;;;;;1.80;1.70;;;5.90;99.90;;;;;;5067447;28;20565;-58
2020/12/30 09:43:19;;;;;;;2.65;1.45;;;6.30;99.90;;;;;;5057885;28;20217;-59
2020/12/30 09:45:55;;;;;;;3.78;1.73;;;6.40;99.90;;;;;;5066967;28;20233;-58
2020/12/30 09:48:20;;;;;;;1.75;1.42;;;6.20;99.90;;;;;;5070362;28;20230;-58
2020/12/30 09:50:48;;;;;;;2.10;1.60;;;6.20;99.90;;;;;;5067465;28;20180;-59
2020/12/30 09:53:14;;;;;;;2.10;1.50;;;6.50;99.90;;;;;;5070825;28;20211;-59
2020/12/30 09:55:46;;;;;;;1.88;1.40;;;6.50;99.80;;;;;;5070300;28;20183;-58
2020/12/30 09:58:12;;;;;;;1.60;1.42;;;6.50;99.80;;;;;;5070495;28;20225;-59
2020/12/30 10:00:38;;;;;;;4.30;1.35;;;6.60;99.90;;;;;;5074853;28;20243;-58
2020/12/30 10:03:05;;;;;;;2.53;1.07;;;6.40;99.90;;;;;;5050694;28;20242;-58
2020/12/30 10:05:31;;;;;;;2.05;1.48;;;6.50;99.70;;;;;;5058495;28;20437;-59
2020/12/30 10:07:56;;;;;;;2.77;1.03;;;6.60;99.70;;;;;;5070216;28;20266;-58
2020/12/30 10:10:23;;;;;;;3.87;1.40;;;6.70;99.50;;;;;;5070149;28;21001;-59
2020/12/30 10:12:49;;;;;;;1.80;1.25;;;6.60;99.10;;;;;;5057154;28;20267;-60
2020/12/30 10:15:17;;;;;;;2.92;1.48;;;6.90;98.90;;;;;;5056519;28;20203;-58
2020/12/30 10:17:43;;;;;;;2.50;1.60;;;7.00;99.10;;;;;;5070019;28;20201;-59
2020/12/30 10:20:09;;;;;;;3.53;2.37;;;6.70;98.50;;;;;;5066827;28;20690;-58
2020/12/30 10:22:37;;;;;;;4.28;2.10;;;6.80;98.60;;;;;;5064833;28;20796;-58
2020/12/30 10:25:04;;;;;;;1.63;1.35;;;6.80;98.70;;;;;;5070360;28;20183;-58
2020/12/30 10:27:30;;;;;;;1.90;1.40;;;7.00;98.80;;;;;;5070660;28;20215;-58
2020/12/30 10:29:55;;;;;;;1.80;1.40;;;7.10;98.70;;;;;;5074701;28;20190;-59
2020/12/30 10:32:21;;;;;;;11.50;4.60;;;6.90;98.60;;;;;;5052058;28;20692;-59
2020/12/30 10:34:48;;;;;;;2.90;1.43;;;7.00;98.50;;;;;;5070106;28;20275;-57
2020/12/30 10:37:16;;;;;;;2.78;1.27;;;7.10;98.40;;;;;;5069785;28;20211;-58
2020/12/30 10:39:44;;;;;;;1.50;1.40;;;7.50;98.70;;;;;;5065221;28;20181;-58
2020/12/30 10:42:10;;;;;;;2.30;1.40;;;8.30;97.00;;;;;;5049576;28;20342;-58
2020/12/30 10:44:36;;;;;;;1.27;1.07;;;8.50;95.60;;;;;;5056412;28;20193;-59
2020/12/30 10:47:01;;;;;;;3.13;1.40;;;8.70;94.60;;;;;;5069615;28;20250;-58
2020/12/30 10:49:27;;;;;;;2.23;1.50;;;9.10;94.60;;;;;;5068414;28;20223;-59
2020/12/30 10:51:52;;;;;;;2.90;1.30;;;9.20;94.40;;;;;;5064857;28;20227;-58
2020/12/30 10:54:20;;;;;;;2.77;1.13;;;8.60;94.50;;;;;;5057877;28;20590;-59
2020/12/30 10:56:50;;;;;;;2.80;1.38;;;9.00;94.00;;;;;;5068926;28;20684;-58
2020/12/30 10:59:16;;;;;;;4.30;1.00;;;9.00;94.00;;;;;;5069063;28;20193;-58
2020/12/30 11:01:42;;;;;;;3.30;1.70;;;8.30;94.20;;;;;;5069062;28;20196;-58
2020/12/30 11:04:09;;;;;;;1.47;1.20;;;8.50;94.20;;;;;;5068673;28;20193;-58
2020/12/30 11:06:35;;;;;;;2.35;1.50;;;8.20;94.50;;;;;;5068080;28;20452;-58
2020/12/30 11:09:01;;;;;;;2.10;1.60;;;8.30;94.90;;;;;;5068951;28;20589;-59
2020/12/30 11:11:27;;;;;;;2.50;2.00;;;8.20;95.20;;;;;;5068665;28;20524;-59
2020/12/30 11:13:52;;;;;;;3.05;1.50;;;8.30;95.10;;;;;;5068904;28;20408;-58
2020/12/30 11:16:18;;;;;;;5.23;1.30;;;7.60;95.00;;;;;;5068499;28;20185;-59
2020/12/30 11:18:44;;;;;;;3.10;1.23;;;8.40;95.50;;;;;;5068697;28;20183;-60
2020/12/30 11:21:10;;;;;;;1.53;1.10;;;8.00;95.40;;;;;;5067836;28;20268;-58
2020/12/30 11:23:35;;;;;;;3.17;2.80;;;8.10;95.60;;;;;;5068122;28;20439;-58
2020/12/30 11:26:01;;;;;;;2.70;1.07;;;7.90;95.60;;;;;;5068940;28;20181;-60
2020/12/30 11:28:27;;;;;;;1.87;1.50;;;7.90;95.80;;;;;;5068153;28;20452;-58
2020/12/30 11:30:52;;;;;;;4.10;1.87;;;8.00;95.90;;;;;;5079482;28;20177;-59
2020/12/30 11:33:18;;;;;;;2.73;1.20;;;8.00;95.90;;;;;;5050200;28;20391;-59
2020/12/30 11:35:47;;;;;;;2.00;1.33;;;7.90;95.80;;;;;;5065049;28;20646;-58
2020/12/30 11:38:12;;;;;;;1.30;0.90;;;8.30;96.50;;;;;;5068719;28;20266;-60
2020/12/30 11:40:41;;;;;;;2.00;1.27;;;8.20;95.90;;;;;;5067498;28;20176;-58
2020/12/30 11:43:07;;;;;;;2.03;0.98;;;8.30;95.90;;;;;;5068687;28;20561;-59
2020/12/30 11:45:33;;;;;;;2.20;1.50;;;8.40;95.90;;;;;;5053681;28;20189;-58
2020/12/30 11:48:03;;;;;;;1.53;1.30;;;7.90;95.60;;;;;;5056790;28;20242;-59
2020/12/30 11:50:32;;;;;;;2.00;1.00;;;7.90;95.80;;;;;;5068665;28;20406;-58
2020/12/30 11:52:58;;;;;;;1.80;1.10;;;8.10;95.90;;;;;;5068033;28;20634;-59
2020/12/30 11:55:25;;;;;;;1.30;1.20;;;8.10;96.20;;;;;;5068097;28;20667;-59
2020/12/30 11:57:51;;;;;;;1.15;0.90;;;8.30;96.20;;;;;;5067338;28;20209;-59
2020/12/30 12:00:16;;;;;;;2.37;1.20;;;8.30;96.10;;;;;;5073490;28;20188;-58
2020/12/30 12:02:42;;;;;;;1.63;0.80;;;7.90;96.10;;;;;;5065893;28;20190;-58
2020/12/30 12:05:13;;;;;;;1.23;1.13;;;8.00;96.20;;;;;;5060748;28;20188;-59
2020/12/30 12:07:39;;;;;;;3.00;1.70;;;8.10;96.60;;;;;;5067881;28;20265;-59
2020/12/30 12:10:06;;;;;;;3.53;1.40;;;8.10;96.80;;;;;;5067005;28;20646;-59
2020/12/30 12:12:32;;;;;;;1.30;0.98;;;7.90;96.70;;;;;;5068143;28;20634;-58
2020/12/30 12:14:57;;;;;;;1.20;1.10;;;8.20;96.90;;;;;;5069669;28;20263;-59
2020/12/30 12:17:23;;;;;;;1.07;1.00;;;7.90;96.70;;;;;;5063047;28;20657;-61
2020/12/30 12:19:49;;;;;;;2.20;1.93;;;8.10;96.70;;;;;;5065399;28;20281;-59
2020/12/30 12:22:15;;;;;;;1.83;1.67;;;7.90;96.70;;;;;;5060009;28;20185;-59
2020/12/30 12:24:41;;;;;;;1.33;1.23;;;7.90;97.20;;;;;;5067513;28;20833;-58
2020/12/30 12:27:06;;;;;;;1.70;1.40;;;7.80;97.00;;;;;;5067272;28;20254;-59
2020/12/30 12:29:35;;;;;;;3.47;1.20;;;8.00;97.50;;;;;;5067446;28;20585;-59
2020/12/30 12:32:02;;;;;;;1.77;1.67;;;8.00;97.00;;;;;;5066978;28;20209;-59
2020/12/30 12:34:28;;;;;;;4.30;1.30;;;8.10;97.10;;;;;;5067484;28;20185;-59
2020/12/30 12:36:54;;;;;;;2.43;2.10;;;8.10;97.40;;;;;;5067625;28;20212;-59
2020/12/30 12:39:19;;;;;;;3.07;1.93;;;7.60;97.70;;;;;;5067537;28;20233;-59
2020/12/30 12:41:45;;;;;;;2.83;2.00;;;7.70;97.80;;;;;;5067453;28;20423;-59
2020/12/30 12:44:11;;;;;;;2.03;1.60;;;7.90;97.50;;;;;;5067790;28;20271;-59
2020/12/30 12:46:36;;;;;;;2.00;1.80;;;7.80;98.00;;;;;;5067668;28;20220;-59
2020/12/30 12:49:02;;;;;;;2.70;2.37;;;7.90;97.60;;;;;;5066577;28;20680;-59
2020/12/30 12:51:28;;;;;;;1.87;1.73;;;8.00;97.70;;;;;;5066932;28;20284;-59
2020/12/30 12:53:57;;;;;;;1.87;1.63;;;8.00;97.60;;;;;;5068098;28;20434;-59
2020/12/30 12:56:23;;;;;;;2.10;1.90;;;7.90;97.50;;;;;;5067779;28;20272;-59
2020/12/30 12:58:48;;;;;;;2.07;1.40;;;7.90;97.50;;;;;;5067218;28;20284;-60
2020/12/30 13:01:15;;;;;;;2.37;1.60;;;8.00;97.60;;;;;;5067268;28;20213;-59